Time;durP1;ratioP1;P1;durP2;ratioP2;P2;SDS_P1;SDS_P2;PMS_P1;PMS_P2;Temp;Humidity;BMP_temperature;BMP_pressure;BME280_temperature;BME280_humidity;BME280_pressure;Samples;Min_cycle;Max_cycle;Signal;HPM_P1;HPM_P2
2024/01/16 00:00:44;;;;;;;9.57;3.77;;;;;;;11.93;91.82;99269.63;4991483;28;20042;-91
2024/01/16 00:03:10;;;;;;;8.97;3.17;;;;;;;11.94;91.82;99265.25;4992106;28;20622;-90
2024/01/16 00:05:35;;;;;;;7.88;2.65;;;;;;;11.94;91.84;99260.84;4991951;28;20646;-90
2024/01/16 00:08:01;;;;;;;6.67;2.80;;;;;;;11.95;91.83;99252.03;4991733;28;20026;-91
2024/01/16 00:10:26;;;;;;;7.23;2.70;;;;;;;11.96;92.23;99243.22;4990902;28;20030;-88
2024/01/16 00:12:51;;;;;;;7.37;2.70;;;;;;;11.96;91.73;99244.97;4991493;28;20058;-91
2024/01/16 00:15:17;;;;;;;7.18;2.67;;;;;;;11.96;91.65;99243.22;4991138;28;20104;-89
2024/01/16 00:17:43;;;;;;;6.27;2.93;;;;;;;11.95;91.51;99251.16;4991308;28;20038;-88
2024/01/16 00:20:08;;;;;;;7.20;2.87;;;;;;;11.93;91.73;99243.25;4991737;28;20038;-88
2024/01/16 00:22:34;;;;;;;6.90;3.15;;;;;;;11.92;91.75;99247.69;4991401;28;20026;-91
2024/01/16 00:24:59;;;;;;;7.90;3.37;;;;;;;11.91;91.88;99260.91;4991022;28;20128;-91
2024/01/16 00:27:25;;;;;;;8.60;3.10;;;;;;;11.90;91.92;99259.16;4991414;28;20034;-91
2024/01/16 00:29:50;;;;;;;8.20;3.37;;;;;;;11.89;91.85;99258.31;4991140;28;20356;-90
2024/01/16 00:32:16;;;;;;;6.90;2.77;;;;;;;11.86;91.93;99261.03;4991228;28;20037;-91
2024/01/16 00:34:42;;;;;;;5.30;2.30;;;;;;;11.87;91.96;99256.63;4991370;28;20498;-91
2024/01/16 00:37:08;;;;;;;6.40;2.30;;;;;;;11.87;91.78;99259.25;5007794;28;20041;-89
2024/01/16 00:39:33;;;;;;;6.30;2.35;;;;;;;11.87;91.83;99257.50;5009596;28;20042;-90
2024/01/16 00:41:58;;;;;;;7.60;2.50;;;;;;;11.87;91.89;99256.63;4996592;28;20031;-87
2024/01/16 00:44:24;;;;;;;7.10;2.70;;;;;;;11.88;91.71;99261.88;4991457;28;20067;-91
2024/01/16 00:46:50;;;;;;;8.45;3.13;;;;;;;11.89;91.77;99260.06;4990923;28;20114;-85
2024/01/16 00:49:15;;;;;;;8.90;3.37;;;;;;;11.90;92.04;99256.53;4991062;28;20027;-88
2024/01/16 00:51:40;;;;;;;9.47;3.40;;;;;;;11.87;91.72;99249.59;4990883;28;20378;-90
2024/01/16 00:54:07;;;;;;;7.70;3.63;;;;;;;11.87;92.08;99257.50;4990691;28;20034;-88
2024/01/16 00:56:34;;;;;;;8.27;3.70;;;;;;;11.89;91.88;99262.72;4990662;28;20343;-92
2024/01/16 00:58:59;;;;;;;8.32;3.63;;;;;;;11.87;91.99;99256.63;4990502;28;20057;-83
2024/01/16 01:01:25;;;;;;;9.10;3.77;;;;;;;11.86;91.85;99262.81;4991069;28;20034;-91
2024/01/16 01:03:51;;;;;;;6.87;3.40;;;;;;;11.86;91.86;99252.25;4993232;28;20276;-85
2024/01/16 01:06:17;;;;;;;13.65;6.38;;;;;;;11.87;91.93;99253.97;5003009;28;20407;-87
2024/01/16 01:08:42;;;;;;;9.70;4.43;;;;;;;11.87;91.97;99254.88;4998274;28;20018;-91
2024/01/16 01:11:08;;;;;;;9.00;3.63;;;;;;;11.87;92.03;99248.72;4990783;28;20056;-91
2024/01/16 01:13:33;;;;;;;7.83;4.00;;;;;;;11.89;92.42;99246.88;4991346;28;20073;-89
2024/01/16 01:15:59;;;;;;;7.43;3.20;;;;;;;11.88;92.39;99251.31;4989479;28;20019;-91
2024/01/16 01:18:24;;;;;;;7.47;3.37;;;;;;;11.90;92.45;99253.91;4989208;28;20054;-92
2024/01/16 01:20:50;;;;;;;12.13;5.13;;;;;;;11.91;92.09;99258.25;4990977;28;20022;-88
2024/01/16 01:23:15;;;;;;;8.53;3.77;;;;;;;11.94;92.20;99254.69;4994343;28;20023;-88
2024/01/16 01:25:40;;;;;;;7.63;3.33;;;;;;;11.96;92.26;99258.16;5003954;28;20433;-89
2024/01/16 01:28:06;;;;;;;10.80;4.60;;;;;;;11.96;92.15;99261.69;4994566;28;20284;-88
2024/01/16 01:30:32;;;;;;;8.73;3.70;;;;;;;11.97;92.12;99255.50;4994495;28;20022;-91
2024/01/16 01:32:57;;;;;;;9.27;4.10;;;;;;;11.97;91.93;99258.13;4994382;28;20475;-90
2024/01/16 01:35:22;;;;;;;7.63;3.30;;;;;;;11.97;92.05;99266.03;4996879;28;20454;-92
2024/01/16 01:37:49;;;;;;;7.30;3.63;;;;;;;11.99;92.13;99264.22;4996284;28;20113;-91
2024/01/16 01:40:15;;;;;;;7.75;3.50;;;;;;;11.99;92.37;99253.69;4999380;28;20109;-88
2024/01/16 01:42:42;;;;;;;8.68;3.50;;;;;;;12.00;92.49;99260.69;5013563;28;20053;-89
2024/01/16 01:45:09;;;;;;;8.68;3.58;;;;;;;12.01;92.25;99259.81;5013771;28;20080;-91
2024/01/16 01:47:34;;;;;;;7.93;3.23;;;;;;;12.02;92.10;99248.34;5013986;28;20085;-90
2024/01/16 01:50:01;;;;;;;8.30;4.00;;;;;;;12.02;92.13;99253.63;5013820;28;20458;-91
2024/01/16 01:52:26;;;;;;;8.27;3.27;;;;;;;12.03;91.95;99250.06;5014077;28;20066;-81
2024/01/16 01:54:52;;;;;;;8.00;3.42;;;;;;;12.04;92.08;99245.66;5013494;28;20057;-89
2024/01/16 01:57:18;;;;;;;9.70;3.30;;;;;;;12.05;92.26;99252.66;5013668;28;20058;-83
2024/01/16 01:59:43;;;;;;;8.60;3.80;;;;;;;12.05;91.94;99245.63;5013032;28;20083;-87
2024/01/16 02:02:11;;;;;;;8.52;3.78;;;;;;;12.06;92.12;99244.72;5013397;28;20077;-89
2024/01/16 02:04:39;;;;;;;6.43;3.40;;;;;;;12.06;92.02;99242.06;5008697;28;20038;-85
2024/01/16 02:07:05;;;;;;;8.38;3.30;;;;;;;12.06;91.99;99236.81;4993734;28;20022;-91
2024/01/16 02:09:31;;;;;;;8.93;3.27;;;;;;;12.07;92.13;99240.31;4993918;28;20533;-85
2024/01/16 02:11:57;;;;;;;9.50;3.42;;;;;;;12.09;91.93;99242.91;4976218;28;20022;-87
2024/01/16 02:14:22;;;;;;;9.83;3.50;;;;;;;12.07;92.11;99240.31;4993243;28;20038;-91
2024/01/16 02:16:48;;;;;;;7.70;3.30;;;;;;;12.08;92.17;99238.53;4975722;28;20038;-89
2024/01/16 02:19:13;;;;;;;9.03;3.33;;;;;;;12.06;92.03;99234.16;4993338;28;20084;-90
2024/01/16 02:21:42;;;;;;;8.50;3.20;;;;;;;12.06;91.78;99231.53;4993228;28;20026;-91
2024/01/16 02:24:11;;;;;;;9.55;3.42;;;;;;;12.07;92.14;99224.50;4993247;28;20034;-89
2024/01/16 02:26:36;;;;;;;10.88;3.28;;;;;;;12.06;92.06;99228.03;4993528;28;20080;-91
2024/01/16 02:29:03;;;;;;;7.00;3.50;;;;;;;12.07;92.04;99219.22;4993355;28;20480;-87
2024/01/16 02:31:29;;;;;;;10.23;3.60;;;;;;;12.07;92.00;99224.50;4993425;28;20030;-87
2024/01/16 02:33:54;;;;;;;7.63;3.47;;;;;;;12.08;91.85;99223.56;4992418;28;20398;-87
2024/01/16 02:36:19;;;;;;;8.03;3.17;;;;;;;12.09;91.96;99219.16;5003164;28;20123;-91
2024/01/16 02:38:45;;;;;;;7.20;3.17;;;;;;;12.08;91.83;99210.38;4995092;28;20017;-91
2024/01/16 02:41:13;;;;;;;8.93;3.55;;;;;;;12.09;91.99;99216.50;4999791;28;20183;-91
2024/01/16 02:43:39;;;;;;;9.68;3.90;;;;;;;12.09;91.93;99214.75;4993416;28;20030;-91
2024/01/16 02:46:04;;;;;;;9.60;3.97;;;;;;;12.08;92.01;99213.03;4993134;28;20034;-91
2024/01/16 02:48:29;;;;;;;11.30;5.20;;;;;;;12.07;92.44;99211.28;4992778;28;20064;-89
2024/01/16 02:50:55;;;;;;;9.73;4.40;;;;;;;12.08;92.24;99198.94;4993192;28;20025;-89
2024/01/16 02:53:20;;;;;;;8.73;3.63;;;;;;;12.06;92.32;99226.25;4993533;28;20030;-85
2024/01/16 02:55:46;;;;;;;8.77;3.63;;;;;;;12.05;92.26;99229.78;4992624;28;20026;-90
2024/01/16 02:58:11;;;;;;;8.90;3.70;;;;;;;12.05;91.95;99224.50;4992906;28;20027;-90
2024/01/16 03:00:37;;;;;;;8.17;3.50;;;;;;;12.05;92.47;99226.28;4992299;28;20043;-91
2024/01/16 03:03:02;;;;;;;7.60;3.50;;;;;;;12.04;92.59;99230.69;4992878;28;20019;-91
2024/01/16 03:05:28;;;;;;;7.40;3.33;;;;;;;12.04;92.23;99225.41;4992942;28;20030;-91
2024/01/16 03:07:53;;;;;;;8.67;3.93;;;;;;;12.03;92.72;99207.84;4992596;28;20037;-91
2024/01/16 03:10:18;;;;;;;7.97;3.87;;;;;;;12.03;92.52;99205.22;4992754;28;20434;-92
2024/01/16 03:12:44;;;;;;;8.47;3.83;;;;;;;12.01;92.71;99209.69;4992720;28;20037;-92
2024/01/16 03:15:10;;;;;;;9.13;4.23;;;;;;;12.00;92.72;99202.63;4992580;28;20750;-90
2024/01/16 03:17:35;;;;;;;9.93;4.47;;;;;;;12.01;92.53;99203.53;4992197;28;20073;-88
2024/01/16 03:20:01;;;;;;;8.10;3.85;;;;;;;11.99;92.77;99205.31;4992900;28;20037;-92
2024/01/16 03:22:28;;;;;;;9.38;4.35;;;;;;;11.99;92.81;99210.56;4992354;28;20030;-91
2024/01/16 03:24:53;;;;;;;9.20;3.83;;;;;;;11.95;92.67;99215.09;4992190;28;20153;-91
2024/01/16 03:27:19;;;;;;;9.53;4.07;;;;;;;11.96;92.71;99215.94;4992426;28;20046;-91
2024/01/16 03:29:45;;;;;;;8.73;4.40;;;;;;;11.95;92.47;99223.00;4992195;28;20031;-91
2024/01/16 03:32:10;;;;;;;8.23;4.23;;;;;;;11.97;92.36;99223.84;4992126;28;20038;-90
2024/01/16 03:34:36;;;;;;;8.10;3.87;;;;;;;11.96;92.34;99219.47;4992105;28;20042;-91
2024/01/16 03:37:01;;;;;;;9.32;3.90;;;;;;;11.97;92.23;99218.56;5007747;28;20081;-79
2024/01/16 03:39:27;;;;;;;9.97;4.37;;;;;;;11.97;91.98;99220.31;5011748;28;20030;-86
2024/01/16 03:41:52;;;;;;;9.40;4.63;;;;;;;11.97;92.06;99226.47;4992772;28;20057;-91
2024/01/16 03:44:18;;;;;;;9.80;4.97;;;;;;;11.98;92.21;99222.91;4991428;28;20037;-91
2024/01/16 03:46:43;;;;;;;10.25;5.35;;;;;;;11.96;92.08;99222.09;4991151;28;20046;-90
2024/01/16 03:49:08;;;;;;;12.60;5.60;;;;;;;11.94;92.38;99218.63;4992075;28;20205;-88
2024/01/16 03:51:34;;;;;;;10.57;5.40;;;;;;;11.92;92.20;99225.69;4991535;28;20409;-85
2024/01/16 03:53:59;;;;;;;9.03;4.90;;;;;;;11.92;92.39;99225.69;4991269;28;20030;-85
2024/01/16 03:56:24;;;;;;;12.53;4.93;;;;;;;11.91;92.20;99229.25;4991242;28;20105;-90
2024/01/16 03:58:50;;;;;;;13.33;5.53;;;;;;;11.91;92.39;99230.13;4991100;28;20276;-85
2024/01/16 04:01:15;;;;;;;10.07;5.47;;;;;;;11.91;92.25;99224.84;4991422;28;20034;-88
2024/01/16 04:03:41;;;;;;;11.63;5.13;;;;;;;11.90;92.52;99227.50;4991376;28;20035;-87
2024/01/16 04:06:18;;;;;;;11.77;5.70;;;;;;;11.89;92.65;99226.66;4991104;28;20045;-88
2024/01/16 04:08:45;;;;;;;12.13;5.85;;;;;;;11.92;92.18;99220.41;4991374;28;20073;-89
2024/01/16 04:11:13;;;;;;;12.85;5.90;;;;;;;11.92;92.37;99220.41;4991359;28;20041;-89
2024/01/16 04:13:39;;;;;;;9.80;5.38;;;;;;;11.92;92.52;99220.41;4993262;28;20022;-88
2024/01/16 04:16:05;;;;;;;12.23;5.68;;;;;;;11.92;92.73;99216.03;4999809;28;20026;-89
2024/01/16 04:18:38;;;;;;;11.70;5.47;;;;;;;11.93;92.20;99227.44;4994635;28;20018;-87
2024/01/16 04:21:04;;;;;;;10.90;5.07;;;;;;;11.93;92.46;99219.50;4990927;28;20027;-91
2024/01/16 04:23:29;;;;;;;10.37;5.60;;;;;;;11.93;92.30;99219.50;4991093;28;20033;-86
2024/01/16 04:25:55;;;;;;;12.73;5.80;;;;;;;11.94;92.43;99218.63;4995505;28;20026;-89
2024/01/16 04:28:20;;;;;;;11.10;5.50;;;;;;;11.94;92.42;99229.19;4991613;28;20118;-91
2024/01/16 04:30:45;;;;;;;13.07;6.00;;;;;;;11.94;92.25;99223.91;4990836;28;20225;-86
2024/01/16 04:33:11;;;;;;;13.50;5.93;;;;;;;11.93;92.38;99224.78;4990842;28;20054;-89
2024/01/16 04:35:36;;;;;;;11.83;5.10;;;;;;;11.92;92.42;99220.41;4995293;28;20088;-90
2024/01/16 04:38:03;;;;;;;13.88;5.47;;;;;;;11.94;92.37;99220.41;5010145;28;20437;-88
2024/01/16 04:40:28;;;;;;;12.00;5.40;;;;;;;11.92;92.68;99221.31;5002865;28;20061;-89
2024/01/16 04:42:53;;;;;;;11.27;5.72;;;;;;;11.92;92.72;99225.69;4990976;28;20105;-90
2024/01/16 04:45:19;;;;;;;13.87;5.70;;;;;;;11.91;92.53;99224.84;4990851;28;20030;-90
2024/01/16 04:47:44;;;;;;;11.27;5.07;;;;;;;11.92;92.51;99215.16;4990749;28;20026;-90
2024/01/16 04:50:10;;;;;;;13.33;5.03;;;;;;;11.90;92.60;99217.84;4998936;28;20022;-90
2024/01/16 04:52:35;;;;;;;11.43;5.10;;;;;;;11.90;92.49;99228.41;5004672;28;20029;-90
2024/01/16 04:55:00;;;;;;;10.27;5.60;;;;;;;11.91;92.47;99223.97;4998892;28;20530;-89
2024/01/16 04:57:26;;;;;;;11.00;4.83;;;;;;;11.88;92.35;99213.50;4994111;28;20284;-90
2024/01/16 04:59:51;;;;;;;10.23;4.10;;;;;;;11.88;92.42;99219.66;4995561;28;20062;-90
2024/01/16 05:02:18;;;;;;;8.13;3.80;;;;;;;11.88;92.40;99224.06;4994750;28;20033;-90
2024/01/16 05:04:43;;;;;;;8.20;3.13;;;;;;;11.87;92.39;99225.84;4994789;28;20003;-91
2024/01/16 05:07:08;;;;;;;7.00;2.53;;;;;;;11.86;92.24;99232.03;4995304;28;20049;-89
2024/01/16 05:09:34;;;;;;;5.00;2.30;;;;;;;11.86;92.30;99231.16;4994845;28;20395;-90
2024/01/16 05:12:00;;;;;;;5.88;2.30;;;;;;;11.86;92.36;99228.50;4994622;28;20105;-90
2024/01/16 05:14:25;;;;;;;7.40;2.50;;;;;;;11.84;92.17;99225.03;4994820;28;20033;-91
2024/01/16 05:16:52;;;;;;;6.15;2.00;;;;;;;11.84;92.05;99227.69;4994400;28;20031;-91
2024/01/16 05:19:18;;;;;;;6.03;2.47;;;;;;;11.82;91.98;99240.06;4994455;28;20057;-91
2024/01/16 05:21:43;;;;;;;4.57;1.60;;;;;;;11.82;91.63;99234.78;4994561;28;20038;-90
2024/01/16 05:24:08;;;;;;;6.67;1.70;;;;;;;11.82;91.51;99234.78;4996102;28;20031;-91
2024/01/16 05:26:34;;;;;;;4.43;1.40;;;;;;;11.79;91.29;99230.44;5000759;28;20042;-85
2024/01/16 05:28:59;;;;;;;4.57;1.43;;;;;;;11.75;91.66;99232.31;4994364;28;20037;-90
2024/01/16 05:31:25;;;;;;;5.45;1.30;;;;;;;11.75;91.36;99231.41;4994286;28;20093;-92
2024/01/16 05:33:50;;;;;;;5.47;1.10;;;;;;;11.73;91.28;99228.84;4994442;28;20037;-86
2024/01/16 05:36:15;;;;;;;3.47;1.10;;;;;;;11.72;91.63;99226.22;5003651;28;20025;-91
2024/01/16 05:38:41;;;;;;;5.30;0.90;;;;;;;11.73;91.39;99231.47;5013567;28;20030;-88
2024/01/16 05:41:06;;;;;;;4.65;0.90;;;;;;;11.72;91.27;99239.41;5000966;28;20536;-90
2024/01/16 05:43:32;;;;;;;3.27;0.73;;;;;;;11.72;91.34;99240.31;4994185;28;20034;-90
2024/01/16 05:45:57;;;;;;;3.17;0.90;;;;;;;11.70;91.15;99242.09;4993899;28;20039;-87
2024/01/16 05:48:22;;;;;;;3.30;0.90;;;;;;;11.69;91.26;99236.84;4993943;28;20034;-85
2024/01/16 05:50:48;;;;;;;4.22;0.82;;;;;;;11.68;91.18;99237.75;4997116;28;20037;-89
2024/01/16 05:53:13;;;;;;;4.43;0.80;;;;;;;11.65;91.03;99238.69;5007584;28;20107;-88
2024/01/16 05:55:39;;;;;;;3.40;0.73;;;;;;;11.66;91.29;99250.97;4996846;28;20046;-90
2024/01/16 05:58:04;;;;;;;3.90;1.00;;;;;;;11.65;90.97;99254.53;4993895;28;20104;-91
2024/01/16 06:00:30;;;;;;;6.32;1.10;;;;;;;11.62;91.11;99254.59;4993168;28;20569;-88
2024/01/16 06:02:56;;;;;;;3.83;0.60;;;;;;;11.61;91.09;99253.75;4993961;28;20030;-86
2024/01/16 06:05:21;;;;;;;3.28;0.60;;;;;;;11.60;91.09;99251.13;4993756;28;20022;-90
2024/01/16 06:07:46;;;;;;;4.30;0.70;;;;;;;11.59;90.98;99258.19;4993214;28;20447;-91
2024/01/16 06:10:15;;;;;;;3.23;0.60;;;;;;;11.59;90.69;99265.22;4993700;28;20034;-91
2024/01/16 06:12:41;;;;;;;5.38;0.98;;;;;;;11.59;90.82;99259.94;4994194;28;20110;-89
2024/01/16 06:15:07;;;;;;;2.60;0.50;;;;;;;11.58;90.92;99264.38;4993651;28;20477;-90
2024/01/16 06:17:32;;;;;;;2.55;0.50;;;;;;;11.58;90.82;99252.94;4992568;28;20034;-91
2024/01/16 06:19:58;;;;;;;3.07;0.80;;;;;;;11.56;90.54;99250.34;4994316;28;20061;-93
2024/01/16 06:22:23;;;;;;;5.70;0.60;;;;;;;11.56;90.57;99254.75;4995922;28;20094;-93
2024/01/16 06:24:48;;;;;;;4.65;0.90;;;;;;;11.53;90.78;99249.56;4995598;28;20034;-93
2024/01/16 06:27:18;;;;;;;3.73;0.80;;;;;;;11.54;90.67;99259.22;4994886;28;20086;-92
2024/01/16 06:29:45;;;;;;;3.50;0.70;;;;;;;11.52;90.55;99259.22;4994640;28;20034;-88
2024/01/16 06:32:10;;;;;;;3.00;0.60;;;;;;;11.51;90.50;99256.66;4995167;28;20093;-92
2024/01/16 06:34:36;;;;;;;4.20;0.77;;;;;;;11.49;90.37;99257.56;4995386;28;20018;-89
2024/01/16 06:37:01;;;;;;;8.20;1.10;;;;;;;11.46;90.44;99256.75;5011105;28;20029;-91
2024/01/16 06:39:27;;;;;;;5.17;1.07;;;;;;;11.46;90.67;99267.28;5015304;28;20057;-92
2024/01/16 06:41:52;;;;;;;4.80;1.20;;;;;;;11.47;90.62;99272.53;5015088;28;20026;-91
2024/01/16 06:44:19;;;;;;;5.00;1.17;;;;;;;11.47;90.57;99259.38;5015300;28;20029;-91
2024/01/16 06:46:44;;;;;;;6.50;1.85;;;;;;;11.46;90.45;99262.03;5016186;28;20030;-90
2024/01/16 06:49:10;;;;;;;6.07;2.20;;;;;;;11.43;90.66;99270.00;4995994;28;20045;-88
2024/01/16 06:51:35;;;;;;;8.57;2.80;;;;;;;11.42;90.26;99269.13;4992093;28;20085;-87
2024/01/16 06:54:00;;;;;;;7.20;1.80;;;;;;;11.42;90.33;99273.53;4974977;28;20041;-87
2024/01/16 06:56:26;;;;;;;6.95;1.48;;;;;;;11.39;90.32;99278.91;4992195;28;20037;-88
2024/01/16 06:58:52;;;;;;;6.00;1.47;;;;;;;11.38;90.08;99277.16;4991641;28;20052;-86
2024/01/16 07:01:18;;;;;;;4.37;0.90;;;;;;;11.37;90.30;99271.00;4992004;28;20045;-87
2024/01/16 07:03:43;;;;;;;6.95;1.08;;;;;;;11.34;90.59;99269.34;4991956;28;20130;-88
2024/01/16 07:06:09;;;;;;;7.13;1.80;;;;;;;11.33;90.37;99270.22;4991311;28;20109;-88
2024/01/16 07:08:34;;;;;;;6.80;1.15;;;;;;;11.34;90.45;99276.34;4991028;28;20037;-86
2024/01/16 07:11:00;;;;;;;6.00;1.40;;;;;;;11.31;90.34;99276.44;4992902;28;20093;-92
2024/01/16 07:13:25;;;;;;;4.47;1.30;;;;;;;11.31;90.64;99281.69;4993468;28;20050;-90
2024/01/16 07:15:51;;;;;;;4.75;1.10;;;;;;;11.32;90.38;99284.28;4994486;28;20066;-91
2024/01/16 07:18:16;;;;;;;7.07;1.20;;;;;;;11.35;90.67;99278.09;4991388;28;20041;-88
2024/01/16 07:20:42;;;;;;;4.40;1.20;;;;;;;11.36;90.31;99279.81;4991838;28;20026;-86
2024/01/16 07:23:07;;;;;;;4.83;1.00;;;;;;;11.37;90.55;99285.97;4993629;28;20085;-84
2024/01/16 07:25:32;;;;;;;4.03;1.20;;;;;;;11.37;90.38;99286.81;5001154;28;20273;-87
2024/01/16 07:27:58;;;;;;;5.53;1.40;;;;;;;11.38;90.29;99288.56;4992032;28;20033;-87
2024/01/16 07:30:23;;;;;;;4.67;1.20;;;;;;;11.38;90.09;99288.56;4993392;28;20065;-94
2024/01/16 07:32:51;;;;;;;4.85;1.40;;;;;;;11.40;90.05;99286.75;4995793;28;20076;-95
2024/01/16 07:35:16;;;;;;;4.95;1.20;;;;;;;11.42;90.21;99295.50;4995743;28;20035;-93
2024/01/16 07:37:41;;;;;;;3.67;1.20;;;;;;;11.43;90.10;99304.28;4992196;28;20245;-86
2024/01/16 07:40:09;;;;;;;7.17;1.73;;;;;;;11.44;90.35;99313.91;4992752;28;20033;-93
2024/01/16 07:42:35;;;;;;;6.00;1.52;;;;;;;11.44;90.27;99314.75;4993979;28;20031;-94
2024/01/16 07:45:04;;;;;;;6.15;1.90;;;;;;;11.44;90.23;99313.91;4992591;28;20041;-90
2024/01/16 07:47:31;;;;;;;5.73;1.87;;;;;;;11.42;90.40;99327.13;4992298;28;20101;-91
2024/01/16 07:49:56;;;;;;;6.22;1.98;;;;;;;11.41;90.19;99330.66;4992340;28;20105;-90
2024/01/16 07:52:22;;;;;;;8.70;1.65;;;;;;;11.42;90.17;99326.28;4992691;28;20113;-90
2024/01/16 07:54:48;;;;;;;6.00;2.03;;;;;;;11.42;90.13;99321.00;4992479;28;20046;-92
2024/01/16 07:57:13;;;;;;;7.40;2.17;;;;;;;11.41;90.54;99330.66;4992088;28;20113;-94
2024/01/16 07:59:40;;;;;;;5.17;1.70;;;;;;;11.41;90.45;99329.81;4992012;28;20045;-94
2024/01/16 08:02:06;;;;;;;6.25;1.40;;;;;;;11.42;90.78;99329.75;4992273;28;20108;-91
2024/01/16 08:04:31;;;;;;;8.43;1.40;;;;;;;11.43;90.22;99325.38;4992081;28;20034;-94
2024/01/16 08:06:57;;;;;;;6.50;1.40;;;;;;;11.44;90.07;99325.31;4992235;28;20462;-89
2024/01/16 08:09:22;;;;;;;4.38;1.60;;;;;;;11.47;90.21;99332.28;4992215;28;20383;-95
2024/01/16 08:11:48;;;;;;;5.30;1.50;;;;;;;11.45;90.18;99332.34;4992669;28;20486;-83
2024/01/16 08:14:13;;;;;;;5.20;1.70;;;;;;;11.47;90.01;99329.66;4992835;28;20027;-90
2024/01/16 08:16:39;;;;;;;6.18;1.80;;;;;;;11.48;90.14;99336.66;4996391;28;20441;-92
2024/01/16 08:19:04;;;;;;;5.90;1.90;;;;;;;11.49;89.79;99334.00;5002338;28;20027;-88
2024/01/16 08:21:30;;;;;;;7.00;2.00;;;;;;;11.52;89.86;99348.03;4992174;28;20018;-89
2024/01/16 08:23:55;;;;;;;5.70;1.87;;;;;;;11.53;89.91;99341.84;4991720;28;20722;-90
2024/01/16 08:26:20;;;;;;;5.15;1.90;;;;;;;11.55;89.79;99345.31;4999485;28;20027;-88
2024/01/16 08:28:46;;;;;;;5.70;2.00;;;;;;;11.58;89.79;99350.50;4991383;28;20037;-93
2024/01/16 08:31:11;;;;;;;9.73;1.67;;;;;;;11.61;89.90;99347.78;4991094;28;20474;-91
2024/01/16 08:33:37;;;;;;;6.73;1.53;;;;;;;11.62;89.58;99349.53;4991773;28;20034;-92
2024/01/16 08:36:04;;;;;;;6.97;1.60;;;;;;;11.65;89.70;99352.09;4991675;28;20033;-92
2024/01/16 08:38:29;;;;;;;5.75;1.70;;;;;;;11.68;89.76;99352.00;4991454;28;20034;-93
2024/01/16 08:40:55;;;;;;;8.45;1.73;;;;;;;11.71;89.55;99367.78;5002133;28;20394;-93
2024/01/16 08:43:20;;;;;;;6.63;2.37;;;;;;;11.73;89.66;99366.00;5011017;28;20057;-93
2024/01/16 08:45:47;;;;;;;7.47;1.90;;;;;;;11.71;89.60;99370.44;5011386;28;20026;-93
2024/01/16 08:48:14;;;;;;;5.72;1.77;;;;;;;11.73;89.46;99367.75;5011284;28;20034;-93
2024/01/16 08:50:40;;;;;;;7.05;1.50;;;;;;;11.76;89.66;99368.53;4993770;28;20033;-87
2024/01/16 08:53:06;;;;;;;7.63;1.87;;;;;;;11.77;89.60;99370.28;5011236;28;20022;-94
2024/01/16 08:55:32;;;;;;;5.78;1.40;;;;;;;11.81;89.25;99365.78;5011424;28;20026;-89
2024/01/16 08:57:57;;;;;;;9.30;4.07;;;;;;;11.81;89.28;99363.13;5012163;28;20038;-92
2024/01/16 09:00:23;;;;;;;5.97;2.20;;;;;;;11.83;89.47;99363.13;5011227;28;20060;-92
2024/01/16 09:02:49;;;;;;;8.77;1.70;;;;;;;11.85;89.21;99367.47;5011144;28;20022;-94
2024/01/16 09:05:15;;;;;;;10.25;3.70;;;;;;;11.89;89.33;99370.88;4991274;28;20173;-91
2024/01/16 09:07:40;;;;;;;7.50;1.90;;;;;;;11.89;89.07;99370.88;4974219;28;20041;-93
2024/01/16 09:10:06;;;;;;;6.50;1.00;;;;;;;11.90;89.16;99378.78;4992699;28;20398;-93
2024/01/16 09:12:33;;;;;;;7.63;1.83;;;;;;;11.91;88.96;99382.25;4992574;28;20034;-94
2024/01/16 09:14:59;;;;;;;3.65;0.90;;;;;;;11.94;88.87;99382.22;4975653;28;20030;-92
2024/01/16 09:17:26;;;;;;;7.10;1.10;;;;;;;11.96;88.96;99377.75;4994020;28;20034;-86
2024/01/16 09:19:51;;;;;;;8.55;1.58;;;;;;;11.99;88.69;99382.09;4994160;28;20030;-93
2024/01/16 09:22:17;;;;;;;4.72;1.20;;;;;;;11.98;88.68;99370.69;4991868;28;20041;-87
2024/01/16 09:24:43;;;;;;;7.07;1.10;;;;;;;12.00;88.75;99371.50;4982224;28;20093;-82
2024/01/16 09:27:09;;;;;;;7.45;1.33;;;;;;;12.03;88.54;99366.19;4993715;28;20157;-91
2024/01/16 09:29:35;;;;;;;5.68;1.40;;;;;;;12.06;88.48;99371.38;4992631;28;20034;-85
2024/01/16 09:32:01;;;;;;;8.10;1.30;;;;;;;12.11;88.30;99373.03;4992981;28;20034;-83
2024/01/16 09:34:26;;;;;;;6.03;1.20;;;;;;;12.18;88.26;99366.72;4993307;28;20285;-88
2024/01/16 09:36:52;;;;;;;6.37;1.10;;;;;;;12.26;88.20;99367.38;5008091;28;20042;-91
2024/01/16 09:39:17;;;;;;;7.13;1.13;;;;;;;12.37;87.93;99366.22;5012160;28;20029;-93
2024/01/16 09:41:45;;;;;;;5.90;1.10;;;;;;;12.46;87.68;99361.56;4976730;28;20034;-91
2024/01/16 09:44:10;;;;;;;7.53;1.50;;;;;;;12.58;87.69;99364.81;4995346;28;20026;-92
2024/01/16 09:46:38;;;;;;;6.22;1.40;;;;;;;12.68;87.43;99365.44;4995300;28;20518;-88
2024/01/16 09:49:04;;;;;;;9.27;2.10;;;;;;;12.76;87.18;99360.78;4995571;28;20022;-88
2024/01/16 09:51:30;;;;;;;9.77;2.20;;;;;;;12.80;86.78;99362.44;4995013;28;20032;-93
2024/01/16 09:53:56;;;;;;;7.87;1.70;;;;;;;12.85;86.90;99359.66;4994831;28;20038;-93
2024/01/16 09:56:24;;;;;;;8.05;2.10;;;;;;;12.89;86.86;99358.66;4994757;28;20048;-94
2024/01/16 09:58:54;;;;;;;6.97;1.63;;;;;;;12.98;86.91;99355.75;4994403;28;20118;-92
2024/01/16 10:01:21;;;;;;;8.13;2.30;;;;;;;13.05;86.50;99345.88;4994598;28;20470;-92
2024/01/16 10:03:47;;;;;;;12.93;4.33;;;;;;;13.04;86.56;99344.16;4994356;28;20046;-90
2024/01/16 10:06:15;;;;;;;6.80;2.23;;;;;;;13.07;86.45;99338.75;4995126;28;20391;-94
2024/01/16 10:08:41;;;;;;;5.27;1.60;;;;;;;13.08;86.47;99335.22;4994619;28;20361;-92
2024/01/16 10:11:06;;;;;;;7.88;1.50;;;;;;;13.12;86.30;99326.28;4994598;28;20030;-91
2024/01/16 10:13:33;;;;;;;7.10;1.33;;;;;;;13.22;86.49;99337.44;4976996;28;20109;-90
2024/01/16 10:15:59;;;;;;;7.55;1.70;;;;;;;13.30;86.15;99324.00;4994360;28;20054;-93
2024/01/16 10:18:25;;;;;;;10.67;1.33;;;;;;;13.39;85.93;99336.97;4994037;28;20481;-92
2024/01/16 10:20:52;;;;;;;5.45;1.10;;;;;;;13.46;85.91;99335.88;4994330;28;20450;-90
2024/01/16 10:23:30;;;;;;;5.55;1.60;;;;;;;13.52;85.16;99333.94;4994502;28;20014;-92
2024/01/16 10:26:11;;;;;;;5.07;1.10;;;;;;;13.61;85.31;99338.94;5003630;28;20064;-93
2024/01/16 10:28:41;;;;;;;3.60;0.90;;;;;;;13.70;84.93;99340.44;4994163;28;20019;-90
2024/01/16 10:31:08;;;;;;;4.97;0.90;;;;;;;13.74;84.74;99323.53;4996316;28;20061;-87
2024/01/16 10:33:34;;;;;;;6.82;1.02;;;;;;;13.76;84.86;99327.03;5003228;28;20026;-84
2024/01/16 10:36:16;;;;;;;5.10;1.13;;;;;;;13.78;84.22;99326.03;5017182;28;20099;-85
2024/01/16 10:38:43;;;;;;;6.53;1.30;;;;;;;13.84;84.58;99319.69;5024877;28;20038;-92
2024/01/16 10:41:10;;;;;;;6.65;0.90;;;;;;;13.92;84.37;99320.28;5003765;28;20086;-82
2024/01/16 10:43:36;;;;;;;6.43;1.00;;;;;;;14.05;84.14;99318.09;5012328;28;20038;-88
2024/01/16 10:46:17;;;;;;;5.05;0.60;;;;;;;14.08;83.68;99311.84;5000217;28;20038;-90
2024/01/16 10:48:43;;;;;;;5.43;1.00;;;;;;;14.15;83.12;99309.88;4993810;28;20483;-91
2024/01/16 10:51:12;;;;;;;5.07;1.00;;;;;;;14.13;83.15;99303.75;4993678;28;20030;-91
2024/01/16 10:53:43;;;;;;;6.28;0.70;;;;;;;14.06;81.74;99308.38;4993476;28;20033;-87
2024/01/16 10:56:13;;;;;;;4.03;0.70;;;;;;;13.99;82.24;99313.03;4993523;28;20026;-90
2024/01/16 10:58:43;;;;;;;6.60;1.08;;;;;;;13.92;82.15;99309.72;4975668;28;20037;-93
2024/01/16 11:01:16;;;;;;;5.68;0.70;;;;;;;13.87;82.80;99302.84;4993086;28;20042;-89
2024/01/16 11:03:49;;;;;;;7.37;0.70;;;;;;;13.86;82.92;99301.09;4993365;28;20031;-93
2024/01/16 11:06:18;;;;;;;6.45;0.80;;;;;;;13.88;82.53;99296.66;4993300;28;20025;-94
2024/01/16 11:08:48;;;;;;;5.90;0.88;;;;;;;13.87;82.84;99287.81;4993557;28;20310;-93
2024/01/16 11:11:15;;;;;;;6.20;0.70;;;;;;;13.87;82.95;99281.69;4993377;28;20113;-92
2024/01/16 11:13:44;;;;;;;5.10;0.80;;;;;;;13.86;82.79;99282.56;4993792;28;20300;-91
2024/01/16 11:16:10;;;;;;;6.43;1.00;;;;;;;13.86;83.10;99285.22;4993101;28;20031;-90
2024/01/16 11:18:36;;;;;;;4.68;0.80;;;;;;;13.91;82.89;99273.56;4999587;28;20026;-88
2024/01/16 11:21:13;;;;;;;5.87;0.90;;;;;;;14.00;82.24;99276.84;4994903;28;20034;-93
2024/01/16 11:23:39;;;;;;;5.23;0.97;;;;;;;14.10;82.11;99277.38;5005371;28;20266;-91
2024/01/16 11:26:28;;;;;;;4.55;0.82;;;;;;;14.16;80.81;99275.38;5007530;28;20088;-92